createdAt,value
2023-02-10T00:04:22.792Z,77.73
2023-02-10T00:09:31.717Z,77.61
2023-02-10T00:14:41.153Z,77.96
2023-02-10T00:19:51.234Z,77.75
2023-02-10T00:25:00.169Z,77.98
2023-02-10T00:30:09.156Z,78.46
2023-02-10T00:35:17.272Z,78.40
2023-02-10T00:40:25.619Z,78.49
2023-02-10T00:45:32.961Z,78.61
2023-02-10T00:50:42.120Z,78.46
2023-02-10T00:55:50.296Z,78.24
2023-02-10T01:00:59.064Z,78.07
2023-02-10T01:06:08.394Z,78.22
2023-02-10T01:11:18.493Z,78.35
2023-02-10T01:16:27.889Z,78.30
2023-02-10T01:21:37.968Z,78.18
2023-02-10T01:26:46.868Z,77.62
2023-02-10T01:31:55.713Z,78.12
2023-02-10T01:37:03.535Z,78.45
2023-02-10T01:42:15.103Z,78.39
2023-02-10T01:47:24.021Z,78.38
2023-02-10T01:52:33.691Z,78.62
2023-02-10T01:57:43.090Z,78.92
2023-02-10T02:02:51.115Z,79.47
2023-02-10T02:08:02.142Z,78.90
2023-02-10T02:13:18.696Z,78.93
2023-02-10T02:18:35.966Z,79.08
2023-02-10T02:24:03.689Z,79.36
2023-02-10T02:29:22.336Z,79.17
2023-02-10T02:34:36.696Z,79.27
2023-02-10T02:39:45.118Z,79.44
2023-02-10T02:44:56.137Z,80.38
2023-02-10T02:50:17.459Z,80.32
2023-02-10T02:55:35.969Z,80.82
2023-02-10T03:00:46.258Z,80.67
2023-02-10T03:05:54.007Z,80.95
2023-02-10T03:11:01.679Z,80.55
2023-02-10T03:16:10.032Z,80.30
2023-02-10T03:21:18.801Z,80.24
2023-02-10T03:28:53.124Z,79.84
2023-02-10T03:34:01.002Z,80.06
2023-02-10T03:39:09.184Z,79.70
2023-02-10T03:44:17.159Z,80.10
2023-02-10T03:49:24.811Z,80.16
2023-02-10T03:54:33.072Z,80.14
2023-02-10T03:59:41.131Z,80.08
2023-02-10T04:04:49.476Z,79.48
2023-02-10T04:09:57.247Z,79.43
2023-02-10T04:15:05.119Z,78.94
2023-02-10T04:20:14.712Z,79.11
2023-02-10T04:25:23.188Z,79.02
2023-02-10T04:30:30.727Z,78.69
2023-02-10T04:35:39.093Z,78.41
2023-02-10T04:40:46.921Z,79.13
2023-02-10T04:45:54.603Z,79.36
2023-02-10T04:51:02.463Z,79.57
2023-02-10T04:56:10.209Z,80.20
2023-02-10T05:01:18.899Z,80.25
2023-02-10T05:06:26.747Z,80.26
2023-02-10T05:11:34.383Z,80.42
2023-02-10T05:16:42.257Z,80.38
2023-02-10T05:21:50.167Z,80.32
2023-02-10T05:28:13.550Z,80.14
2023-02-10T05:33:21.331Z,80.72
2023-02-10T05:38:29.366Z,80.56
2023-02-10T05:43:37.615Z,80.48
2023-02-10T05:48:48.554Z,79.97
2023-02-10T05:53:58.073Z,80.22
2023-02-10T05:59:05.823Z,80.23
2023-02-10T06:04:15.226Z,80.16
2023-02-10T06:09:24.015Z,80.18
2023-02-10T06:14:32.341Z,80.03
2023-02-10T06:19:40.978Z,80.11
2023-02-10T06:24:49.120Z,80.25
2023-02-10T06:29:57.151Z,80.81
2023-02-10T06:35:05.043Z,81.03
2023-02-10T06:40:15.401Z,81.04
2023-02-10T06:45:23.304Z,81.00
2023-02-10T06:50:31.862Z,81.19
2023-02-10T06:55:39.590Z,81.28
2023-02-10T07:00:48.956Z,81.37
2023-02-10T07:05:57.016Z,80.84
2023-02-10T07:11:05.280Z,80.27
2023-02-10T07:16:16.235Z,79.71
2023-02-10T07:21:23.833Z,79.04
2023-02-10T07:26:31.670Z,78.76
2023-02-10T07:31:39.023Z,78.61
2023-02-10T07:36:46.385Z,78.48
2023-02-10T07:41:55.369Z,78.11
2023-02-10T07:47:03.040Z,77.89
2023-02-10T07:52:10.597Z,77.30
2023-02-10T07:57:18.958Z,76.88
2023-02-10T08:02:26.927Z,75.33
2023-02-10T08:07:34.714Z,74.21
2023-02-10T08:12:42.310Z,73.74
2023-02-10T08:17:52.144Z,72.70
2023-02-10T08:23:01.822Z,71.34
2023-02-10T08:28:09.809Z,71.43
2023-02-10T08:33:18.228Z,70.97
2023-02-10T08:38:26.288Z,70.58
2023-02-10T08:43:35.028Z,70.24
2023-02-10T08:48:43.281Z,69.31
2023-02-10T08:53:51.409Z,67.79
2023-02-10T08:58:59.208Z,66.34
2023-02-10T09:04:07.623Z,66.56
2023-02-10T09:09:18.398Z,65.17
2023-02-10T09:14:26.336Z,63.82
2023-02-10T09:19:34.526Z,63.48
2023-02-10T09:24:47.849Z,62.69
2023-02-10T09:29:55.295Z,63.21
2023-02-10T09:35:03.473Z,62.20
2023-02-10T09:40:19.306Z,61.91
2023-02-10T09:45:34.965Z,61.97
2023-02-10T09:50:52.852Z,61.55
2023-02-10T09:56:03.378Z,61.29
2023-02-10T10:01:17.660Z,62.27
2023-02-10T10:06:30.688Z,61.65
2023-02-10T10:11:44.763Z,61.72
2023-02-10T10:17:06.772Z,59.88
2023-02-10T10:28:11.983Z,60.45
2023-02-10T10:33:31.298Z,60.44
2023-02-10T10:38:44.969Z,59.73
2023-02-10T10:43:54.213Z,58.72
2023-02-10T10:49:02.222Z,58.64
2023-02-10T10:54:16.748Z,58.40
2023-02-10T10:59:32.192Z,57.63
2023-02-10T11:04:43.376Z,57.97
2023-02-10T11:09:59.828Z,58.62
2023-02-10T11:15:25.532Z,58.18
2023-02-10T11:20:37.243Z,57.56
2023-02-10T11:25:49.256Z,57.99
2023-02-10T11:31:03.276Z,57.66
2023-02-10T11:36:13.808Z,57.44
2023-02-10T11:41:31.117Z,57.42
2023-02-10T11:46:38.730Z,57.59
2023-02-10T11:51:56.153Z,56.06
2023-02-10T11:57:38.019Z,57.19
2023-02-10T12:03:10.841Z,56.85
2023-02-10T12:08:28.976Z,55.83
2023-02-10T12:13:47.751Z,55.81
2023-02-10T12:19:01.126Z,55.04
2023-02-10T12:24:21.749Z,55.86
2023-02-10T12:29:47.394Z,55.60
2023-02-10T12:35:14.732Z,56.25
2023-02-10T12:40:33.653Z,56.48
2023-02-10T12:45:50.978Z,57.40
2023-02-10T12:51:33.696Z,56.83
2023-02-10T12:56:46.524Z,57.71
2023-02-10T13:01:57.877Z,57.81
2023-02-10T13:07:11.005Z,58.18
2023-02-10T13:12:23.831Z,58.43
2023-02-10T13:17:39.326Z,58.03
2023-02-10T13:22:56.187Z,58.48
2023-02-10T13:28:19.527Z,58.57
2023-02-10T13:33:35.388Z,58.50
2023-02-10T13:38:43.157Z,58.44
2023-02-10T13:43:59.492Z,58.50
2023-02-10T13:49:09.129Z,58.20
2023-02-10T13:54:30.005Z,58.82
2023-02-10T13:59:42.728Z,59.55
2023-02-10T14:04:52.888Z,60.00
2023-02-10T14:10:08.180Z,60.49
2023-02-10T14:15:26.656Z,60.93
2023-02-10T14:20:38.748Z,61.20
2023-02-10T14:25:49.589Z,61.00
2023-02-10T14:30:59.909Z,61.32
2023-02-10T14:36:17.027Z,61.40
2023-02-10T14:41:25.463Z,61.27
2023-02-10T14:46:37.241Z,61.74
2023-02-10T14:51:47.201Z,62.15
2023-02-10T14:56:59.491Z,62.72
2023-02-10T15:02:19.530Z,62.80
2023-02-10T15:07:32.677Z,63.66
2023-02-10T15:12:50.715Z,63.82
2023-02-10T15:18:03.212Z,64.43
2023-02-10T15:23:30.682Z,64.81
2023-02-10T15:28:39.009Z,65.15
2023-02-10T15:33:57.153Z,65.69
2023-02-10T15:39:06.552Z,65.71
2023-02-10T15:44:39.792Z,66.07
2023-02-10T15:49:49.105Z,66.06
2023-02-10T15:55:00.315Z,66.74
2023-02-10T16:00:14.012Z,66.65
2023-02-10T16:05:21.841Z,66.66
2023-02-10T16:10:29.636Z,67.05
2023-02-10T16:15:37.837Z,66.63
2023-02-10T16:20:45.859Z,66.65
2023-02-10T16:25:53.564Z,66.56
2023-02-10T16:31:01.473Z,66.69
2023-02-10T16:36:10.421Z,66.96
2023-02-10T16:41:17.685Z,66.95
2023-02-10T16:46:26.011Z,67.01
2023-02-10T16:51:33.798Z,67.13
2023-02-10T16:56:43.007Z,67.09
2023-02-10T17:01:50.435Z,67.14
2023-02-10T17:07:00.093Z,66.87
2023-02-10T17:12:08.241Z,66.67
2023-02-10T17:17:16.036Z,66.55
2023-02-10T17:22:23.583Z,66.46
2023-02-10T17:27:32.807Z,66.95
2023-02-10T17:32:44.076Z,66.87
2023-02-10T17:38:06.106Z,66.80
2023-02-10T17:43:13.612Z,66.94
2023-02-10T17:48:21.382Z,66.72
2023-02-10T17:53:29.053Z,66.91
2023-02-10T17:58:37.262Z,66.84
2023-02-10T18:03:44.681Z,66.87
2023-02-10T18:08:52.933Z,67.34
2023-02-10T18:14:00.418Z,67.63
2023-02-10T18:19:10.538Z,67.76
2023-02-10T18:24:19.514Z,68.01
2023-02-10T18:29:27.754Z,68.16
2023-02-10T18:34:35.503Z,68.31
2023-02-10T18:39:43.025Z,68.43
2023-02-10T18:44:50.814Z,68.39
2023-02-10T18:49:58.005Z,68.61
2023-02-10T18:55:04.166Z,68.31
2023-02-10T19:00:14.768Z,68.60
2023-02-10T19:05:24.017Z,68.88
2023-02-10T19:10:32.105Z,68.78
2023-02-10T19:15:39.757Z,68.77
2023-02-10T19:20:47.602Z,69.05
2023-02-10T19:25:57.186Z,69.15
2023-02-10T19:31:07.698Z,69.33
2023-02-10T19:36:16.526Z,69.63
2023-02-10T19:41:27.327Z,69.27
2023-02-10T19:46:35.205Z,69.08
2023-02-10T19:51:45.064Z,69.29
2023-02-10T19:56:53.283Z,69.49
2023-02-10T20:02:01.641Z,69.57
2023-02-10T20:07:09.160Z,69.61
2023-02-10T20:12:17.708Z,69.67
2023-02-10T20:17:25.927Z,69.88
2023-02-10T20:22:34.752Z,69.93
2023-02-10T20:27:43.063Z,70.18
2023-02-10T20:32:50.935Z,70.14
2023-02-10T20:37:59.385Z,70.41
2023-02-10T20:43:07.508Z,70.36
2023-02-10T20:48:15.480Z,70.37
2023-02-10T20:53:23.519Z,70.43
2023-02-10T20:58:31.119Z,70.58
2023-02-10T21:03:40.741Z,70.27
2023-02-10T21:08:51.212Z,70.25
2023-02-10T21:13:59.336Z,70.15
2023-02-10T21:19:08.040Z,70.13
2023-02-10T21:24:18.005Z,70.09
2023-02-10T21:29:26.607Z,70.28
2023-02-10T21:34:34.594Z,70.38
2023-02-10T21:39:41.943Z,70.47
2023-02-10T21:44:50.027Z,70.37
2023-02-10T21:49:57.491Z,70.49
2023-02-10T21:55:06.113Z,70.46
2023-02-10T22:00:17.461Z,70.40
2023-02-10T22:05:26.019Z,70.32
2023-02-10T22:10:36.601Z,70.28
2023-02-10T22:15:45.028Z,70.43
2023-02-10T22:20:52.391Z,70.88
2023-02-10T22:25:59.920Z,70.80
2023-02-10T22:31:11.196Z,71.03
2023-02-10T22:36:19.174Z,71.13
2023-02-10T22:41:28.542Z,70.94
2023-02-10T22:46:36.478Z,70.64
2023-02-10T22:51:45.272Z,70.72
2023-02-10T22:56:53.532Z,70.91
2023-02-10T23:02:02.696Z,71.20
2023-02-10T23:07:09.992Z,71.30
2023-02-10T23:12:19.555Z,71.54
2023-02-10T23:17:27.605Z,71.95
2023-02-10T23:22:37.159Z,71.73
2023-02-10T23:27:44.827Z,71.90
2023-02-10T23:32:52.218Z,71.93
2023-02-10T23:37:59.585Z,72.26
2023-02-10T23:43:07.143Z,72.30
2023-02-10T23:48:16.756Z,72.55
2023-02-10T23:53:24.575Z,72.47
2023-02-10T23:58:31.868Z,72.64
